createdAt,value
2023-03-20T00:02:22.085Z,100235.00
2023-03-20T00:04:49.206Z,100232.03
2023-03-20T00:07:16.288Z,100228.69
2023-03-20T00:09:43.393Z,100235.59
2023-03-20T00:12:24.220Z,100220.22
2023-03-20T00:14:51.296Z,100227.38
2023-03-20T00:17:21.100Z,100214.34
2023-03-20T00:19:48.485Z,100227.44
2023-03-20T00:22:15.557Z,100227.91
2023-03-20T00:24:42.616Z,100228.59
2023-03-20T00:27:16.413Z,100229.75
2023-03-20T00:29:44.221Z,100227.25
2023-03-20T00:32:15.659Z,100223.47
2023-03-20T00:34:43.016Z,100221.34
2023-03-20T00:37:11.949Z,100197.94
2023-03-20T00:39:39.363Z,100214.19
2023-03-20T00:42:10.769Z,100221.19
2023-03-20T00:44:42.377Z,100211.88
2023-03-20T00:47:21.901Z,100207.91
2023-03-20T00:49:52.152Z,100214.16
2023-03-20T00:52:21.758Z,100211.38
2023-03-20T00:54:49.132Z,100194.38
2023-03-20T00:57:35.616Z,100203.28
2023-03-20T01:00:44.791Z,100205.03
2023-03-20T01:03:24.375Z,100209.25
2023-03-20T01:05:52.196Z,100203.19
2023-03-20T01:08:25.518Z,100203.31
2023-03-20T01:10:58.313Z,100200.63
2023-03-20T01:13:29.206Z,100196.88
2023-03-20T01:15:58.139Z,100199.47
2023-03-20T01:18:27.152Z,100200.34
2023-03-20T01:20:54.342Z,100196.03
2023-03-20T01:23:23.103Z,100200.22
2023-03-20T01:25:50.874Z,100195.53
2023-03-20T01:28:24.173Z,100192.94
2023-03-20T01:30:51.644Z,100195.78
2023-03-20T01:33:22.282Z,100201.75
2023-03-20T01:35:50.841Z,100184.66
2023-03-20T01:38:25.863Z,100195.75
2023-03-20T01:41:01.955Z,100187.34
2023-03-20T01:43:29.582Z,100189.53
2023-03-20T01:46:06.518Z,100189.41
2023-03-20T01:49:05.761Z,100182.28
2023-03-20T01:51:33.161Z,100177.59
2023-03-20T01:54:10.390Z,100179.94
2023-03-20T01:56:43.913Z,100172.66
2023-03-20T01:59:22.134Z,100172.66
2023-03-20T02:01:49.263Z,100172.53
2023-03-20T02:04:17.880Z,100165.31
2023-03-20T02:06:45.907Z,100170.53
2023-03-20T02:09:13.301Z,100168.84
2023-03-20T02:11:42.042Z,100173.28
2023-03-20T02:14:10.028Z,100178.56
2023-03-20T02:16:37.120Z,100175.75
2023-03-20T02:19:08.408Z,100177.53
2023-03-20T02:22:17.074Z,100170.81
2023-03-20T02:25:15.450Z,100175.66
2023-03-20T02:28:00.307Z,100173.22
2023-03-20T02:31:04.068Z,100172.97
2023-03-20T02:34:14.602Z,100173.56
2023-03-20T02:37:41.955Z,100171.81
2023-03-20T02:40:33.496Z,100165.69
2023-03-20T02:43:24.888Z,100174.13
2023-03-20T02:46:18.854Z,100165.53
2023-03-20T02:49:40.462Z,100165.59
2023-03-20T02:52:24.001Z,100166.97
2023-03-20T02:55:07.187Z,100168.69
2023-03-20T02:58:14.690Z,100162.84
2023-03-20T03:01:16.209Z,100164.56
2023-03-20T03:03:58.650Z,100165.22
2023-03-20T03:06:35.994Z,100163.81
2023-03-20T03:09:12.240Z,100156.75
2023-03-20T03:11:56.174Z,100155.94
2023-03-20T03:14:43.359Z,100157.09
2023-03-20T03:17:13.200Z,100161.53
2023-03-20T03:19:46.401Z,100160.22
2023-03-20T03:22:13.771Z,100153.53
2023-03-20T03:24:47.260Z,100155.53
2023-03-20T03:27:37.007Z,100154.78
2023-03-20T03:30:27.201Z,100158.19
2023-03-20T03:33:17.214Z,100159.00
2023-03-20T03:35:45.652Z,100157.09
2023-03-20T03:38:55.573Z,100149.06
2023-03-20T03:41:31.049Z,100150.75
2023-03-20T03:44:34.290Z,100148.69
2023-03-20T03:47:08.613Z,100152.16
2023-03-20T03:49:44.606Z,100147.66
2023-03-20T03:52:18.136Z,100146.97
2023-03-20T03:55:01.268Z,100152.09
2023-03-20T03:57:38.278Z,100144.00
2023-03-20T04:00:09.031Z,100148.88
2023-03-20T04:02:36.527Z,100146.09
2023-03-20T04:05:06.001Z,100143.25
2023-03-20T04:07:33.101Z,100140.38
2023-03-20T04:10:00.147Z,100143.19
2023-03-20T04:12:44.224Z,100138.91
2023-03-20T04:15:14.424Z,100144.97
2023-03-20T04:17:42.299Z,100135.16
2023-03-20T04:20:12.352Z,100138.72
2023-03-20T04:22:39.957Z,100139.44
2023-03-20T04:25:10.275Z,100145.69
2023-03-20T04:27:37.286Z,100144.66
2023-03-20T04:30:04.846Z,100145.91
2023-03-20T04:32:31.870Z,100143.63
2023-03-20T04:34:58.987Z,100145.09
2023-03-20T04:37:26.194Z,100142.94
2023-03-20T04:39:53.448Z,100132.91
2023-03-20T04:42:20.514Z,100142.59
2023-03-20T04:44:47.543Z,100142.66
2023-03-20T04:47:14.640Z,100146.00
2023-03-20T04:49:41.662Z,100142.25
2023-03-20T04:52:09.290Z,100151.50
2023-03-20T04:54:36.363Z,100150.81
2023-03-20T04:57:03.607Z,100152.53
2023-03-20T04:59:30.711Z,100152.66
2023-03-20T05:01:57.755Z,100149.41
2023-03-20T05:04:24.850Z,100144.41
2023-03-20T05:06:52.178Z,100154.72
2023-03-20T05:09:19.467Z,100157.09
2023-03-20T05:11:46.665Z,100142.66
2023-03-20T05:14:13.794Z,100154.47
2023-03-20T05:16:41.041Z,100161.13
2023-03-20T05:19:08.097Z,100159.69
2023-03-20T05:21:35.357Z,100147.13
2023-03-20T05:24:02.572Z,100150.69
2023-03-20T05:26:30.006Z,100157.75
2023-03-20T05:28:57.047Z,100159.03
2023-03-20T05:31:24.170Z,100149.56
2023-03-20T05:33:51.229Z,100152.81
2023-03-20T05:36:18.301Z,100148.66
2023-03-20T05:38:45.633Z,100150.03
2023-03-20T05:41:12.707Z,100152.88
2023-03-20T05:43:39.710Z,100148.84
2023-03-20T05:46:07.488Z,100150.81
2023-03-20T05:48:34.599Z,100148.09
2023-03-20T05:51:01.717Z,100148.91
2023-03-20T05:53:28.738Z,100154.00
2023-03-20T05:55:55.793Z,100140.63
2023-03-20T05:58:23.096Z,100147.56
2023-03-20T06:00:50.157Z,100146.25
2023-03-20T06:03:17.373Z,100149.22
2023-03-20T06:05:45.372Z,100153.94
2023-03-20T06:08:12.521Z,100153.13
2023-03-20T06:10:39.545Z,100144.00
2023-03-20T06:13:06.605Z,100147.53
2023-03-20T06:15:34.016Z,100139.03
2023-03-20T06:18:01.384Z,100149.66
2023-03-20T06:20:28.641Z,100148.56
2023-03-20T06:22:55.751Z,100148.63
2023-03-20T06:25:22.792Z,100135.00
2023-03-20T06:27:49.980Z,100141.53
2023-03-20T06:30:17.651Z,100136.97
2023-03-20T06:32:44.809Z,100137.97
2023-03-20T06:35:13.521Z,100146.78
2023-03-20T06:37:41.274Z,100153.06
2023-03-20T06:40:10.351Z,100158.97
2023-03-20T06:42:37.528Z,100161.56
2023-03-20T06:45:05.627Z,100167.94
2023-03-20T06:47:32.666Z,100169.00
2023-03-20T06:49:59.734Z,100168.63
2023-03-20T06:52:26.733Z,100170.88
2023-03-20T06:54:53.856Z,100169.00
2023-03-20T06:57:20.906Z,100164.25
2023-03-20T06:59:47.982Z,100161.44
2023-03-20T07:02:16.414Z,100166.91
2023-03-20T07:04:43.538Z,100168.78
2023-03-20T07:07:10.837Z,100168.03
2023-03-20T07:09:37.889Z,100163.47
2023-03-20T07:12:05.138Z,100172.56
2023-03-20T07:14:32.299Z,100164.59
2023-03-20T07:16:59.427Z,100159.31
2023-03-20T07:19:27.826Z,100161.06
2023-03-20T07:22:02.941Z,100166.38
2023-03-20T07:24:30.538Z,100161.97
2023-03-20T07:26:57.614Z,100163.75
2023-03-20T07:29:24.661Z,100168.84
2023-03-20T07:31:52.191Z,100167.09
2023-03-20T07:34:19.304Z,100175.91
2023-03-20T07:36:46.403Z,100167.59
2023-03-20T07:39:14.423Z,100165.22
2023-03-20T07:41:41.853Z,100167.84
2023-03-20T07:44:10.518Z,100171.50
2023-03-20T07:46:37.656Z,100173.97
2023-03-20T07:49:05.794Z,100165.22
2023-03-20T07:51:33.481Z,100160.78
2023-03-20T07:54:00.653Z,100159.72
2023-03-20T07:56:27.641Z,100160.41
2023-03-20T07:58:54.759Z,100173.63
2023-03-20T08:01:21.911Z,100165.47
2023-03-20T08:03:49.098Z,100166.78
2023-03-20T08:06:16.245Z,100161.28
2023-03-20T08:08:45.078Z,100161.94
2023-03-20T08:11:12.853Z,100165.84
2023-03-20T08:13:39.844Z,100166.25
2023-03-20T08:16:07.389Z,100161.47
2023-03-20T08:18:34.555Z,100170.63
2023-03-20T08:21:01.774Z,100159.00
2023-03-20T08:23:28.893Z,100154.94
2023-03-20T08:25:56.328Z,100157.94
2023-03-20T08:28:36.360Z,100154.88
2023-03-20T08:31:10.875Z,100160.88
2023-03-20T08:33:38.059Z,100159.13
2023-03-20T08:36:06.032Z,100167.31
2023-03-20T08:38:33.149Z,100163.31
2023-03-20T08:41:00.229Z,100166.41
2023-03-20T08:43:27.308Z,100157.41
2023-03-20T08:45:54.804Z,100157.75
2023-03-20T08:48:22.069Z,100158.41
2023-03-20T08:50:49.206Z,100165.63
2023-03-20T08:53:16.560Z,100162.06
2023-03-20T08:55:50.225Z,100162.59
2023-03-20T08:58:18.970Z,100161.31
2023-03-20T09:00:46.710Z,100164.94
2023-03-20T09:03:21.184Z,100153.25
2023-03-20T09:05:51.427Z,100150.56
2023-03-20T09:08:18.865Z,100157.44
2023-03-20T09:10:51.442Z,100160.13
2023-03-20T09:13:27.225Z,100154.06
2023-03-20T09:15:56.976Z,100149.41
2023-03-20T09:18:24.773Z,100155.09
2023-03-20T09:20:52.070Z,100147.50
2023-03-20T09:23:19.677Z,100159.69
2023-03-20T09:25:47.736Z,100151.50
2023-03-20T09:28:15.291Z,100147.97
2023-03-20T09:30:43.716Z,100145.75
2023-03-20T09:33:11.574Z,100139.56
2023-03-20T09:35:39.202Z,100136.34
2023-03-20T09:38:06.945Z,100134.69
2023-03-20T09:41:01.538Z,100136.91
2023-03-20T09:44:02.453Z,100138.06
2023-03-20T09:47:21.166Z,100145.38
2023-03-20T09:50:39.436Z,100151.41
2023-03-20T09:53:18.690Z,100153.19
2023-03-20T09:55:46.216Z,100147.94
2023-03-20T09:58:23.111Z,100145.78
2023-03-20T10:00:50.287Z,100143.25
2023-03-20T10:03:51.925Z,100141.88
2023-03-20T10:06:19.079Z,100143.91
2023-03-20T10:08:47.117Z,100147.06
2023-03-20T10:11:19.948Z,100145.63
2023-03-20T10:14:07.974Z,100150.44
2023-03-20T10:17:05.533Z,100149.41
2023-03-20T10:19:51.066Z,100149.06
2023-03-20T10:22:31.890Z,100155.66
2023-03-20T10:25:28.565Z,100146.00
2023-03-20T10:28:04.416Z,100136.50
2023-03-20T10:30:55.528Z,100137.19
2023-03-20T10:34:07.489Z,100148.16
2023-03-20T10:36:50.263Z,100136.09
2023-03-20T10:39:40.896Z,100144.94
2023-03-20T10:42:38.122Z,100139.25
2023-03-20T10:45:31.418Z,100148.56
2023-03-20T10:48:03.895Z,100145.13
2023-03-20T10:50:44.104Z,100141.47
2023-03-20T10:53:26.122Z,100141.22
2023-03-20T10:55:59.004Z,100134.03
2023-03-20T10:58:31.870Z,100129.59
2023-03-20T11:00:59.731Z,100132.19
2023-03-20T11:03:30.592Z,100135.66
2023-03-20T11:06:10.124Z,100128.09
2023-03-20T11:08:42.311Z,100134.25
2023-03-20T11:11:10.278Z,100121.53
2023-03-20T11:13:45.032Z,100103.00
2023-03-20T11:16:30.153Z,100113.28
2023-03-20T11:19:10.955Z,100105.19
2023-03-20T11:21:56.084Z,100108.72
2023-03-20T11:24:42.128Z,100113.00
2023-03-20T11:27:20.595Z,100101.06
2023-03-20T11:29:50.346Z,100094.25
2023-03-20T11:32:38.799Z,100093.53
2023-03-20T11:35:33.619Z,100087.22
2023-03-20T11:38:31.307Z,100088.91
2023-03-20T11:40:58.455Z,100079.56
2023-03-20T11:43:28.731Z,100083.09
2023-03-20T11:45:59.621Z,100086.22
2023-03-20T11:48:39.765Z,100081.31
2023-03-20T11:51:09.757Z,100082.03
2023-03-20T11:53:53.768Z,100086.16
2023-03-20T11:56:33.593Z,100070.88
2023-03-20T11:59:11.875Z,100078.28
2023-03-20T12:01:47.173Z,100075.59
2023-03-20T12:04:27.385Z,100076.94
2023-03-20T12:07:18.110Z,100069.31
2023-03-20T12:10:03.768Z,100071.75
2023-03-20T12:12:53.326Z,100075.22
2023-03-20T12:15:27.076Z,100076.66
2023-03-20T12:18:18.069Z,100071.97
2023-03-20T12:21:06.558Z,100076.00
2023-03-20T12:23:40.698Z,100062.75
2023-03-20T12:26:22.561Z,100064.97
2023-03-20T12:29:17.231Z,100060.66
2023-03-20T12:32:10.432Z,100061.44
2023-03-20T12:35:31.281Z,100072.06
2023-03-20T12:37:58.958Z,100058.66
2023-03-20T12:40:43.608Z,100059.63
2023-03-20T12:43:27.493Z,100067.66
2023-03-20T12:46:25.249Z,100067.78
2023-03-20T12:50:07.465Z,100059.41
2023-03-20T12:56:14.231Z,100058.44
2023-03-20T12:58:56.977Z,100063.94
2023-03-20T13:01:45.684Z,100067.59
2023-03-20T13:05:01.656Z,100069.34
2023-03-20T13:08:03.269Z,100059.59
2023-03-20T13:10:39.305Z,100060.47
2023-03-20T13:13:28.757Z,100066.63
2023-03-20T13:16:23.905Z,100063.91
2023-03-20T13:19:29.255Z,100057.56
2023-03-20T13:22:32.208Z,100059.53
2023-03-20T13:25:35.139Z,100048.94
2023-03-20T13:29:06.564Z,100048.94
2023-03-20T13:31:53.537Z,100047.13
2023-03-20T13:34:39.203Z,100066.69
2023-03-20T13:37:46.580Z,100060.47
2023-03-20T13:40:29.106Z,100056.00
2023-03-20T13:43:27.125Z,100049.81
2023-03-20T13:46:18.864Z,100046.25
2023-03-20T13:48:47.331Z,100049.69
2023-03-20T13:51:29.365Z,100051.41
2023-03-20T13:54:13.892Z,100047.69
2023-03-20T13:56:51.581Z,100053.94
2023-03-20T13:59:41.265Z,100052.22
2023-03-20T14:02:17.937Z,100054.13
2023-03-20T14:04:47.796Z,100050.50
2023-03-20T14:07:44.577Z,100052.34
2023-03-20T14:10:24.236Z,100055.81
2023-03-20T14:13:07.657Z,100063.84
2023-03-20T14:15:38.915Z,100049.44
2023-03-20T14:18:17.844Z,100056.59
2023-03-20T14:20:57.319Z,100061.06
2023-03-20T14:23:35.205Z,100056.66
2023-03-20T14:26:19.188Z,100063.72
2023-03-20T14:29:19.909Z,100068.06
2023-03-20T14:31:52.264Z,100068.88
2023-03-20T14:34:26.021Z,100067.19
2023-03-20T14:37:03.360Z,100073.50
2023-03-20T14:40:02.399Z,100070.00
2023-03-20T14:42:50.754Z,100067.31
2023-03-20T14:45:37.705Z,100066.31
2023-03-20T14:48:41.881Z,100070.84
2023-03-20T14:51:27.783Z,100074.28
2023-03-20T14:53:58.061Z,100078.88
2023-03-20T14:56:33.259Z,100071.59
2023-03-20T14:59:06.538Z,100073.34
2023-03-20T15:01:39.817Z,100064.50
2023-03-20T15:04:41.094Z,100080.22
2023-03-20T15:07:17.782Z,100076.78
2023-03-20T15:09:51.153Z,100072.13
2023-03-20T15:12:24.935Z,100075.63
2023-03-20T15:14:58.192Z,100068.59
2023-03-20T15:17:34.832Z,100064.31
2023-03-20T15:20:26.375Z,100070.19
2023-03-20T15:23:02.116Z,100069.34
2023-03-20T15:25:39.874Z,100071.06
2023-03-20T15:28:22.667Z,100069.22
2023-03-20T15:30:53.590Z,100069.38
2023-03-20T15:33:33.558Z,100070.97
2023-03-20T15:36:32.922Z,100072.03
2023-03-20T15:39:17.858Z,100073.66
2023-03-20T15:41:48.399Z,100079.88
2023-03-20T15:44:15.491Z,100082.69
2023-03-20T15:47:13.888Z,100084.00
2023-03-20T15:49:41.808Z,100084.22
2023-03-20T15:52:28.804Z,100084.09
2023-03-20T15:54:59.629Z,100090.06
2023-03-20T15:57:43.953Z,100098.69
2023-03-20T16:00:30.485Z,100102.94
2023-03-20T16:02:59.667Z,100104.66
2023-03-20T16:05:30.458Z,100099.03
2023-03-20T16:07:57.915Z,100095.31
2023-03-20T16:10:38.461Z,100089.13
2023-03-20T16:13:10.827Z,100086.25
2023-03-20T16:15:38.994Z,100091.59
2023-03-20T16:18:07.160Z,100091.66
2023-03-20T16:20:42.023Z,100087.09
2023-03-20T16:23:10.025Z,100089.75
2023-03-20T16:25:38.460Z,100076.34
2023-03-20T16:28:07.326Z,100072.81
2023-03-20T16:30:36.136Z,100060.19
2023-03-20T16:33:14.691Z,100062.13
2023-03-20T16:35:49.676Z,100075.97
2023-03-20T16:38:31.532Z,100078.13
2023-03-20T16:41:32.147Z,100078.47
2023-03-20T16:43:59.489Z,100084.91
2023-03-20T16:46:28.681Z,100083.19
2023-03-20T16:49:34.941Z,100095.00
2023-03-20T16:52:08.886Z,100093.53
2023-03-20T16:54:37.122Z,100092.59
2023-03-20T16:57:13.480Z,100088.28
2023-03-20T16:59:41.037Z,100093.19
2023-03-20T17:02:30.281Z,100094.78
2023-03-20T17:05:11.837Z,100098.38
2023-03-20T17:07:39.591Z,100094.28
2023-03-20T17:10:32.993Z,100092.97
2023-03-20T17:13:00.366Z,100093.16
2023-03-20T17:15:27.849Z,100101.25
2023-03-20T17:17:54.920Z,100102.06
2023-03-20T17:20:28.492Z,100096.38
2023-03-20T17:22:55.768Z,100098.91
2023-03-20T17:25:22.982Z,100099.63
2023-03-20T17:27:50.374Z,100099.75
2023-03-20T17:30:25.033Z,100093.88
2023-03-20T17:32:52.750Z,100101.06
2023-03-20T17:35:20.435Z,100097.41
2023-03-20T17:37:48.838Z,100089.03
2023-03-20T17:40:22.391Z,100090.41
2023-03-20T17:42:49.734Z,100092.72
2023-03-20T17:45:20.534Z,100089.59
2023-03-20T17:47:48.785Z,100090.41
2023-03-20T17:50:27.473Z,100086.75
2023-03-20T17:52:55.390Z,100097.28
2023-03-20T17:55:22.786Z,100090.72
2023-03-20T17:57:50.516Z,100091.47
2023-03-20T18:00:24.488Z,100088.53
2023-03-20T18:02:52.472Z,100097.88
2023-03-20T18:05:20.108Z,100093.13
2023-03-20T18:07:47.499Z,100092.97
2023-03-20T18:10:27.065Z,100094.78
2023-03-20T18:12:54.206Z,100090.09
2023-03-20T18:15:21.468Z,100092.78
2023-03-20T18:17:48.483Z,100089.25
2023-03-20T18:20:39.629Z,100094.25
2023-03-20T18:23:07.592Z,100097.69
2023-03-20T18:25:36.522Z,100104.66
2023-03-20T18:28:07.008Z,100102.63
2023-03-20T18:30:41.366Z,100099.88
2023-03-20T18:33:09.807Z,100100.72
2023-03-20T18:35:37.395Z,100096.84
2023-03-20T18:38:05.819Z,100098.19
2023-03-20T18:40:36.492Z,100094.13
2023-03-20T18:43:04.530Z,100098.25
2023-03-20T18:45:32.610Z,100101.88
2023-03-20T18:47:59.860Z,100106.47
2023-03-20T18:50:36.515Z,100093.00
2023-03-20T18:53:06.346Z,100099.53
2023-03-20T18:55:34.721Z,100108.31
2023-03-20T18:58:06.536Z,100104.75
2023-03-20T19:00:42.837Z,100102.59
2023-03-20T19:03:11.941Z,100098.91
2023-03-20T19:05:39.360Z,100102.00
2023-03-20T19:08:06.704Z,100096.34
2023-03-20T19:10:40.724Z,100099.84
2023-03-20T19:13:08.429Z,100102.34
2023-03-20T19:15:37.372Z,100103.25
2023-03-20T19:18:17.340Z,100099.56
2023-03-20T19:20:56.325Z,100100.66
2023-03-20T19:23:26.185Z,100107.44
2023-03-20T19:25:55.562Z,100110.94
2023-03-20T19:28:39.305Z,100098.84
2023-03-20T19:31:09.345Z,100100.25
2023-03-20T19:33:38.571Z,100102.63
2023-03-20T19:36:08.414Z,100098.72
2023-03-20T19:38:37.214Z,100106.53
2023-03-20T19:41:04.567Z,100103.47
2023-03-20T19:43:32.378Z,100107.75
2023-03-20T19:45:59.933Z,100102.63
2023-03-20T19:48:46.951Z,100094.09
2023-03-20T19:51:19.941Z,100095.41
2023-03-20T19:53:47.918Z,100087.44
2023-03-20T19:56:16.996Z,100094.47
2023-03-20T19:58:44.549Z,100090.22
2023-03-20T20:01:18.363Z,100089.41
2023-03-20T20:03:46.887Z,100090.09
2023-03-20T20:06:14.693Z,100095.66
2023-03-20T20:08:48.399Z,100097.00
2023-03-20T20:11:20.846Z,100108.31
2023-03-20T20:14:05.561Z,100120.38
2023-03-20T20:16:36.219Z,100115.13
2023-03-20T20:19:03.787Z,100112.47
2023-03-20T20:24:18.128Z,100108.25
2023-03-20T20:26:59.932Z,100118.75
2023-03-20T20:29:34.486Z,100118.28
2023-03-20T20:32:01.980Z,100114.28
2023-03-20T20:38:09.084Z,100126.63
2023-03-20T20:40:06.154Z,100123.81
2023-03-20T20:42:33.396Z,100125.53
2023-03-20T20:45:00.612Z,100121.91
2023-03-20T20:47:27.872Z,100125.50
2023-03-20T20:49:55.068Z,100121.91
2023-03-20T20:52:22.215Z,100120.47
2023-03-20T20:54:49.280Z,100121.41
2023-03-20T20:57:16.468Z,100121.47
2023-03-20T20:59:43.568Z,100119.63
2023-03-20T21:02:12.088Z,100133.44
2023-03-20T21:04:42.068Z,100122.78
2023-03-20T21:07:13.992Z,100133.19
2023-03-20T21:09:41.464Z,100122.25
2023-03-20T21:12:10.738Z,100120.91
2023-03-20T21:14:40.200Z,100124.13
2023-03-20T21:17:09.266Z,100115.78
2023-03-20T21:19:39.030Z,100112.28
2023-03-20T21:22:08.106Z,100108.91
2023-03-20T21:24:36.391Z,100108.91
2023-03-20T21:27:12.261Z,100110.09
2023-03-20T21:29:40.889Z,100119.66
2023-03-20T21:32:11.836Z,100123.59
2023-03-20T21:34:41.105Z,100119.88
2023-03-20T21:38:17.874Z,100124.13
2023-03-20T21:39:57.026Z,100124.44
2023-03-20T21:42:24.132Z,100122.50
2023-03-20T21:54:07.647Z,100124.56
2023-03-20T21:59:36.798Z,100108.56
2023-03-20T22:02:08.375Z,100111.25
2023-03-20T22:10:49.044Z,100117.38
2023-03-20T22:16:16.659Z,100114.38
2023-03-20T22:30:07.216Z,100119.69
2023-03-20T22:36:08.095Z,100123.59
2023-03-20T22:44:24.732Z,100118.81
2023-03-20T22:46:39.960Z,100121.22
2023-03-20T22:49:00.582Z,100124.59
2023-03-20T22:51:34.338Z,100121.94
2023-03-20T22:54:03.349Z,100123.66
2023-03-20T22:56:30.475Z,100117.69
2023-03-20T22:58:57.843Z,100120.06
2023-03-20T23:01:24.912Z,100127.50
2023-03-20T23:03:51.977Z,100122.13
2023-03-20T23:06:25.464Z,100126.78
2023-03-20T23:08:58.392Z,100117.94
2023-03-20T23:11:27.790Z,100119.00
2023-03-20T23:13:58.044Z,100114.22
2023-03-20T23:16:25.145Z,100119.31
2023-03-20T23:18:52.469Z,100129.88
2023-03-20T23:21:20.955Z,100120.22
2023-03-20T23:23:48.056Z,100113.78
2023-03-20T23:26:20.476Z,100123.31
2023-03-20T23:28:49.803Z,100108.75
2023-03-20T23:31:23.909Z,100108.63
2023-03-20T23:33:54.961Z,100112.63
2023-03-20T23:36:35.507Z,100114.72
2023-03-20T23:39:07.153Z,100117.50
2023-03-20T23:42:07.774Z,100113.59
2023-03-20T23:44:21.857Z,100113.97
2023-03-20T23:46:49.241Z,100110.13
2023-03-20T23:49:17.848Z,100117.00
2023-03-20T23:51:44.931Z,100118.25
2023-03-20T23:54:12.408Z,100107.72
2023-03-20T23:56:39.778Z,100109.44
2023-03-20T23:59:20.211Z,100111.94
